Hyalite Weather Station

This weather station provides temperature, wind speed, gust or max wind speed, and wind direction at 9982ft near the summit of Flanders Mountain. This data can be used with temperature and precipitation data from the Shower Falls SNOTEL site. If the data has not been updated recently you can view it directly on datagarrison.com

Elevation
9982ft
Jump to table bottom
Date Time Temperature
deg F
RH, % Wind Speed Wind Gust Wind Direction
12/18/18 05:00 21.0 60 20 35 SW - 233
12/18/18 04:00 19.2 79 20 37 SW - 229
12/18/18 03:00 18.7 90 18 36 SW - 229
12/18/18 02:00 19.5 91 16 39 SW - 230
12/18/18 01:00 19.5 92 15 27 SW - 230
12/18/18 00:00 20.6 88 14 27 SW - 237
12/17/18 23:00 21.0 87 12 27 SW - 237
12/17/18 22:00 21.0 89 11 23 SW - 243
12/17/18 21:00 22.7 81 17 27 SW - 240
12/17/18 20:00 23.0 79 20 31 W - 248
12/17/18 19:00 23.4 81 16 26 SW - 244
12/17/18 18:00 23.2 81 15 28 SW - 244
12/17/18 17:00 24.1 77 14 27 SW - 239
12/17/18 16:00 24.4 75 15 26 W - 251
12/17/18 15:00 26.2 67 12 25 SW - 240
12/17/18 14:00 27.0 63 18 35 SW - 239
12/17/18 13:00 28.1 58 15 28 SW - 236
12/17/18 12:00 27.6 58 16 31 SW - 233
12/17/18 11:00 27.6 57 18 32 SW - 232
12/17/18 10:00 28.3 54 20 33 SW - 230
12/17/18 09:00 27.5 60 17 30 SW - 233
12/17/18 08:00 26.7 60 19 31 SW - 234
12/17/18 07:00 27.1 55 19 32 SW - 237
12/17/18 06:00 26.7 52 17 27 SW - 236
12/17/18 05:00 27.3 51 17 31 SW - 233
12/17/18 04:00 27.8 50 20 33 SW - 234
12/17/18 03:00 27.9 52 26 41 SW - 233
12/17/18 02:00 28.3 50 31 45 SW - 233
12/17/18 01:00 28.8 48 35 50 SW - 234
12/17/18 00:00 28.7 45 34 46 SW - 236
12/16/18 23:00 29.1 43 35 48 SW - 234
12/16/18 22:00 30.5 37 35 47 SW - 233
12/16/18 21:00 28.4 41 34 54 SW - 233
12/16/18 20:00 30.7 31 31 50 SW - 230
12/16/18 19:00 30.3 33 29 41 SW - 232
12/16/18 18:00 31.4 28 31 42 SW - 232
12/16/18 17:00 33.5 25 34 47 SW - 239
12/16/18 16:00 34.5 24 31 43 SW - 240
12/16/18 15:00 34.6 23 23 45 SW - 234
12/16/18 14:00 33.5 30 18 37 SW - 237
12/16/18 13:00 33.0 28 25 42 SW - 237
12/16/18 12:00 32.2 30 27 45 SW - 240
12/16/18 11:00 32.0 28 34 46 SW - 243
12/16/18 10:00 31.4 28 34 46 SW - 239
12/16/18 09:00 31.7 25 28 38 SW - 241
12/16/18 08:00 29.7 35 29 41 SW - 240
12/16/18 07:00 28.4 43 25 38 SW - 240
12/16/18 06:00 26.6 56 22 30 SW - 243
12/16/18 05:00 27.9 53 21 30 SW - 241
12/16/18 04:00 28.4 49 21 31 SW - 237